createdAt,value
2018-07-14T00:00:45.254Z,65.4
2018-07-14T00:01:34.798Z,65.4
2018-07-14T00:02:25.377Z,65.4
2018-07-14T00:03:14.642Z,65.4
2018-07-14T00:04:05.504Z,65.4
2018-07-14T00:04:55.303Z,65.4
2018-07-14T00:05:45.712Z,65.4
2018-07-14T00:06:35.674Z,65.4
2018-07-14T00:07:25.782Z,65.4
2018-07-14T00:08:15.848Z,65.4
2018-07-14T00:09:05.618Z,65.4
2018-07-14T00:09:55.852Z,65.4
2018-07-14T00:10:46.064Z,65.4
2018-07-14T00:11:36.089Z,65.4
2018-07-14T00:12:25.414Z,65.4
2018-07-14T00:13:15.177Z,65.3
2018-07-14T00:14:05.528Z,65.4
2018-07-14T00:14:55.873Z,65.3
2018-07-14T00:15:45.096Z,65.3
2018-07-14T00:16:35.732Z,65.3
2018-07-14T00:17:26.067Z,65.3
2018-07-14T00:18:16.119Z,65.3
2018-07-14T00:19:06.694Z,65.3
2018-07-14T00:19:55.725Z,65.3
2018-07-14T00:20:46.515Z,65.3
2018-07-14T00:21:36.549Z,65.3
2018-07-14T00:22:26.347Z,65.3
2018-07-14T00:23:16.940Z,65.3
2018-07-14T00:24:06.488Z,65.3
2018-07-14T00:24:56.794Z,65.3
2018-07-14T00:25:46.121Z,65.3
2018-07-14T00:26:36.517Z,65.3
2018-07-14T00:27:26.788Z,65.2
2018-07-14T00:28:16.892Z,65.3
2018-07-14T00:29:07.175Z,65.2
2018-07-14T00:29:57.232Z,65.2
2018-07-14T00:30:46.518Z,65.2
2018-07-14T00:31:36.618Z,65.2
2018-07-14T00:32:26.651Z,65.2
2018-07-14T00:33:16.428Z,65.2
2018-07-14T00:34:07.370Z,65.2
2018-07-14T00:34:57.090Z,65.1
2018-07-14T00:35:46.807Z,65.1
2018-07-14T00:36:37.436Z,65.1
2018-07-14T00:37:28.040Z,65.1
2018-07-14T00:38:16.726Z,65.1
2018-07-14T00:39:07.687Z,65.1
2018-07-14T00:39:58.006Z,65.1
2018-07-14T00:40:48.310Z,65.1
2018-07-14T00:41:38.372Z,65.1
2018-07-14T00:42:28.502Z,65.1
2018-07-14T00:43:18.247Z,65.1
2018-07-14T00:44:08.664Z,65.1
2018-07-14T00:44:58.689Z,65.1
2018-07-14T00:45:48.165Z,65.1
2018-07-14T00:46:38.764Z,65.1
2018-07-14T00:47:28.853Z,65
2018-07-14T00:48:18.916Z,65
2018-07-14T00:49:08.399Z,65
2018-07-14T00:49:58.234Z,65
2018-07-14T00:50:48.793Z,65
2018-07-14T00:51:39.141Z,65
2018-07-14T00:52:28.939Z,65
2018-07-14T00:53:18.161Z,65
2018-07-14T00:54:09.085Z,64.9
2018-07-14T00:54:59.557Z,64.9
2018-07-14T00:55:49.475Z,64.9
2018-07-14T00:56:39.504Z,64.9
2018-07-14T00:57:29.632Z,64.9
2018-07-14T00:58:19.177Z,64.9
2018-07-14T00:59:09.485Z,64.9
2018-07-14T00:59:59.265Z,64.9
2018-07-14T01:00:49.277Z,64.9
2018-07-14T01:01:39.737Z,64.9
2018-07-14T01:02:29.690Z,64.9
2018-07-14T01:03:19.495Z,64.9
2018-07-14T01:04:09.563Z,64.9
2018-07-14T01:04:59.946Z,64.9
2018-07-14T01:05:49.964Z,64.9
2018-07-14T01:06:39.550Z,64.8
2018-07-14T01:07:30.383Z,64.9
2018-07-14T01:08:19.967Z,64.8
2018-07-14T01:09:10.229Z,64.8
2018-07-14T01:10:00.010Z,64.8
2018-07-14T01:10:50.653Z,64.8
2018-07-14T01:11:39.878Z,64.8
2018-07-14T01:12:30.224Z,64.8
2018-07-14T01:13:20.247Z,64.8
2018-07-14T01:14:10.914Z,64.8
2018-07-14T01:15:00.991Z,64.8
2018-07-14T01:15:49.994Z,64.8
2018-07-14T01:16:40.254Z,64.8
2018-07-14T01:17:31.142Z,64.8
2018-07-14T01:18:20.932Z,64.8
2018-07-14T01:19:10.686Z,64.8
2018-07-14T01:20:00.778Z,64.7
2018-07-14T01:20:51.173Z,64.7
2018-07-14T01:21:41.472Z,64.7
2018-07-14T01:22:30.707Z,64.7
2018-07-14T01:23:21.559Z,64.7
2018-07-14T01:24:11.728Z,64.7
2018-07-14T01:25:00.604Z,64.7
2018-07-14T01:25:50.950Z,64.7
2018-07-14T01:26:41.616Z,64.7
2018-07-14T01:27:31.993Z,64.6
2018-07-14T01:28:22.054Z,64.7
2018-07-14T01:29:11.467Z,64.6
2018-07-14T01:30:01.818Z,64.6
2018-07-14T01:30:51.321Z,64.6
2018-07-14T01:31:41.387Z,64.6
2018-07-14T01:32:31.457Z,64.6
2018-07-14T01:33:22.324Z,64.6
2018-07-14T01:34:12.425Z,64.6
2018-07-14T01:35:02.472Z,64.6
2018-07-14T01:35:51.710Z,64.6
2018-07-14T01:36:41.776Z,64.6
2018-07-14T01:37:32.663Z,64.6
2018-07-14T01:38:22.221Z,64.6
2018-07-14T01:39:11.947Z,64.6
2018-07-14T01:40:01.747Z,64.6
2018-07-14T01:40:52.431Z,64.5
2018-07-14T01:41:42.773Z,64.5
2018-07-14T01:42:32.527Z,64.5
2018-07-14T01:43:22.630Z,64.5
2018-07-14T01:44:13.156Z,64.5
2018-07-14T01:45:03.020Z,64.5
2018-07-14T01:45:52.199Z,64.4
2018-07-14T01:46:43.388Z,64.4
2018-07-14T01:47:33.215Z,64.5
2018-07-14T01:48:22.942Z,64.4
2018-07-14T01:49:13.299Z,64.4
2018-07-14T01:50:03.348Z,64.4
2018-07-14T01:50:53.414Z,64.4
2018-07-14T01:51:43.520Z,64.4
2018-07-14T01:52:33.268Z,64.4
2018-07-14T01:53:23.933Z,64.4
2018-07-14T01:54:14.002Z,64.4
2018-07-14T01:55:04.057Z,64.4
2018-07-14T01:55:53.292Z,64.4
2018-07-14T01:56:43.915Z,64.4
2018-07-14T01:57:33.671Z,64.4
2018-07-14T01:58:23.801Z,64.4
2018-07-14T01:59:13.835Z,64.4
2018-07-14T02:00:04.160Z,64.4
2018-07-14T02:00:54.463Z,64.4
2018-07-14T02:01:44.557Z,64.3
2018-07-14T02:02:34.089Z,64.3
2018-07-14T02:03:24.178Z,64.3
2018-07-14T02:04:14.271Z,64.3
2018-07-14T02:05:04.357Z,64.3
2018-07-14T02:05:54.365Z,64.3
2018-07-14T02:06:44.687Z,64.3
2018-07-14T02:07:33.667Z,64.3
2018-07-14T02:08:24.293Z,64.3
2018-07-14T02:09:14.594Z,64.3
2018-07-14T02:10:04.435Z,64.3
2018-07-14T02:10:54.972Z,64.3
2018-07-14T02:11:45.039Z,64.3
2018-07-14T02:12:34.822Z,64.3
2018-07-14T02:13:25.488Z,64.3
2018-07-14T02:14:15.451Z,64.2
2018-07-14T02:15:05.254Z,64.2
2018-07-14T02:15:55.320Z,64.2
2018-07-14T02:16:45.690Z,64.2
2018-07-14T02:17:35.435Z,64.2
2018-07-14T02:18:25.269Z,64.2
2018-07-14T02:19:15.883Z,64.2
2018-07-14T02:20:05.395Z,64.2
2018-07-14T02:20:54.616Z,64.1
2018-07-14T02:21:46.085Z,64.1
2018-07-14T02:22:36.133Z,64.1
2018-07-14T02:23:26.007Z,64.1
2018-07-14T02:24:15.999Z,64.1
2018-07-14T02:25:06.314Z,64.1
2018-07-14T02:25:56.380Z,64.1
2018-07-14T02:26:45.902Z,64.1
2018-07-14T02:27:35.419Z,64.1
2018-07-14T02:28:26.305Z,64.1
2018-07-14T02:29:16.134Z,64.1
2018-07-14T02:30:06.498Z,64.1
2018-07-14T02:30:56.814Z,64.1
2018-07-14T02:31:46.640Z,64.1
2018-07-14T02:32:36.841Z,64.1
2018-07-14T02:33:26.733Z,64
2018-07-14T02:34:17.078Z,64
2018-07-14T02:35:07.157Z,64
2018-07-14T02:35:57.172Z,64
2018-07-14T02:36:46.957Z,64
2018-07-14T02:37:36.740Z,64
2018-07-14T02:38:26.821Z,64
2018-07-14T02:39:17.194Z,64
2018-07-14T02:40:06.968Z,64
2018-07-14T02:40:57.013Z,64
2018-07-14T02:41:47.063Z,63.9
2018-07-14T02:42:37.165Z,63.9
2018-07-14T02:43:27.509Z,63.9
2018-07-14T02:44:17.651Z,63.9
2018-07-14T02:45:07.669Z,63.9
2018-07-14T02:45:57.651Z,63.9
2018-07-14T02:46:47.503Z,63.9
2018-07-14T02:47:37.774Z,63.9
2018-07-14T02:48:28.161Z,63.9
2018-07-14T02:49:17.929Z,63.9
2018-07-14T02:50:07.717Z,63.9
2018-07-14T02:50:58.358Z,63.9
2018-07-14T02:51:48.124Z,63.9
2018-07-14T02:52:38.456Z,63.9
2018-07-14T02:53:28.246Z,63.9
2018-07-14T02:54:18.338Z,63.9
2018-07-14T02:55:08.631Z,63.8
2018-07-14T02:55:57.972Z,63.8
2018-07-14T02:56:48.240Z,63.8
2018-07-14T02:57:37.996Z,63.8
2018-07-14T02:58:28.927Z,63.8
2018-07-14T02:59:18.985Z,63.8
2018-07-14T03:00:09.056Z,63.8
2018-07-14T03:00:58.257Z,63.8
2018-07-14T03:01:48.637Z,63.8
2018-07-14T03:02:39.001Z,63.8
2018-07-14T03:03:28.787Z,63.8
2018-07-14T03:04:19.097Z,63.8
2018-07-14T03:05:08.894Z,63.8
2018-07-14T03:05:58.655Z,63.8
2018-07-14T03:06:48.970Z,63.8
2018-07-14T03:07:39.635Z,63.8
2018-07-14T03:08:29.132Z,63.7
2018-07-14T03:09:19.472Z,63.7
2018-07-14T03:10:09.021Z,63.7
2018-07-14T03:10:58.838Z,63.7
2018-07-14T03:11:48.679Z,63.7
2018-07-14T03:12:39.213Z,63.7
2018-07-14T03:13:29.346Z,63.7
2018-07-14T03:14:19.288Z,63.7
2018-07-14T03:15:09.408Z,63.6
2018-07-14T03:15:59.953Z,63.6
2018-07-14T03:16:49.531Z,63.7
2018-07-14T03:17:40.106Z,63.6
2018-07-14T03:18:29.633Z,63.6
2018-07-14T03:19:20.612Z,63.6
2018-07-14T03:20:10.289Z,63.6
2018-07-14T03:21:00.075Z,63.6
2018-07-14T03:21:50.734Z,63.6
2018-07-14T03:22:40.753Z,63.6
2018-07-14T03:23:30.533Z,63.6
2018-07-14T03:24:20.593Z,63.6
2018-07-14T03:25:11.305Z,63.6
2018-07-14T03:26:00.737Z,63.6
2018-07-14T03:26:51.075Z,63.6
2018-07-14T03:27:40.594Z,63.6
2018-07-14T03:28:31.231Z,63.6
2018-07-14T03:29:20.978Z,63.5
2018-07-14T03:30:11.078Z,63.5
2018-07-14T03:31:01.413Z,63.5
2018-07-14T03:31:51.503Z,63.5
2018-07-14T03:32:41.263Z,63.5
2018-07-14T03:33:31.005Z,63.5
2018-07-14T03:34:20.869Z,63.5
2018-07-14T03:35:11.211Z,63.4
2018-07-14T03:36:01.000Z,63.4
2018-07-14T03:36:51.675Z,63.4
2018-07-14T03:37:40.854Z,63.4
2018-07-14T03:38:31.167Z,63.4
2018-07-14T03:39:21.242Z,63.4
2018-07-14T03:40:11.824Z,63.4
2018-07-14T03:41:01.918Z,63.4
2018-07-14T03:41:52.030Z,63.4
2018-07-14T03:42:41.735Z,63.4
2018-07-14T03:43:32.583Z,63.4
2018-07-14T03:44:22.125Z,63.4
2018-07-14T03:45:11.674Z,63.4
2018-07-14T03:46:01.979Z,63.4
2018-07-14T03:46:52.592Z,63.4
2018-07-14T03:47:42.742Z,63.4
2018-07-14T03:48:32.154Z,63.4
2018-07-14T03:49:22.552Z,63.4
2018-07-14T03:50:12.601Z,63.4
2018-07-14T03:51:02.387Z,63.3
2018-07-14T03:51:52.437Z,63.3
2018-07-14T03:52:42.222Z,63.3
2018-07-14T03:53:32.568Z,63.3
2018-07-14T03:54:22.675Z,63.3
2018-07-14T03:55:13.289Z,63.3
2018-07-14T03:56:03.276Z,63.3
2018-07-14T03:56:53.299Z,63.3
2018-07-14T03:57:42.594Z,63.3
2018-07-14T03:58:33.242Z,63.3
2018-07-14T03:59:23.551Z,63.3
2018-07-14T04:00:13.663Z,63.3
2018-07-14T04:01:02.566Z,63.3
2018-07-14T04:01:52.900Z,63.3
2018-07-14T04:02:43.012Z,63.2
2018-07-14T04:03:33.099Z,63.2
2018-07-14T04:04:23.676Z,63.2
2018-07-14T04:05:13.673Z,63.2
2018-07-14T04:06:03.821Z,63.2
2018-07-14T04:06:54.173Z,63.2
2018-07-14T04:07:43.646Z,63.2
2018-07-14T04:08:34.226Z,63.2
2018-07-14T04:09:23.783Z,63.1
2018-07-14T04:10:13.820Z,63.1
2018-07-14T04:11:04.469Z,63.1
2018-07-14T04:11:54.202Z,63.1
2018-07-14T04:12:44.316Z,63.1
2018-07-14T04:13:34.462Z,63.1
2018-07-14T04:14:24.725Z,63.1
2018-07-14T04:15:14.504Z,63.1
2018-07-14T04:16:04.648Z,63.1
2018-07-14T04:16:54.406Z,63.1
2018-07-14T04:17:44.978Z,63.1
2018-07-14T04:18:34.555Z,63.1
2018-07-14T04:19:24.515Z,63.1
2018-07-14T04:20:14.063Z,63.1
2018-07-14T04:21:05.253Z,63.1
2018-07-14T04:21:55.025Z,63.1
2018-07-14T04:22:45.060Z,63.1
2018-07-14T04:23:35.435Z,63.1
2018-07-14T04:24:24.957Z,63
2018-07-14T04:25:15.274Z,63
2018-07-14T04:26:05.320Z,63
2018-07-14T04:26:55.445Z,63
2018-07-14T04:27:45.708Z,63
2018-07-14T04:28:35.516Z,63
2018-07-14T04:29:24.827Z,63
2018-07-14T04:30:15.082Z,62.9
2018-07-14T04:31:05.451Z,62.9
2018-07-14T04:31:55.378Z,62.9
2018-07-14T04:32:45.831Z,62.9
2018-07-14T04:33:35.656Z,62.9
2018-07-14T04:34:25.980Z,62.9
2018-07-14T04:35:16.027Z,62.9
2018-07-14T04:36:06.393Z,62.9
2018-07-14T04:36:56.155Z,62.9
2018-07-14T04:37:46.614Z,62.9
2018-07-14T04:38:36.279Z,62.9
2018-07-14T04:39:26.361Z,62.9
2018-07-14T04:40:15.958Z,62.9
2018-07-14T04:41:05.964Z,62.9
2018-07-14T04:41:55.998Z,62.9
2018-07-14T04:42:46.364Z,62.9
2018-07-14T04:43:36.966Z,62.8
2018-07-14T04:44:27.016Z,62.9
2018-07-14T04:45:16.805Z,62.8
2018-07-14T04:46:06.644Z,62.8
2018-07-14T04:46:56.680Z,62.8
2018-07-14T04:47:47.263Z,62.8
2018-07-14T04:48:37.375Z,62.8
2018-07-14T04:49:27.968Z,62.8
2018-07-14T04:50:17.183Z,62.8
2018-07-14T04:51:07.293Z,62.8
2018-07-14T04:51:57.582Z,62.8
2018-07-14T04:52:47.169Z,62.8
2018-07-14T04:53:37.480Z,62.8
2018-07-14T04:54:27.245Z,62.8
2018-07-14T04:55:17.294Z,62.8
2018-07-14T04:56:07.667Z,62.8
2018-07-14T04:56:57.738Z,62.8
2018-07-14T04:57:47.774Z,62.7
2018-07-14T04:58:37.341Z,62.8
2018-07-14T04:59:28.149Z,62.7
2018-07-14T05:00:17.941Z,62.7
2018-07-14T05:01:08.014Z,62.7
2018-07-14T05:01:58.087Z,62.7
2018-07-14T05:02:47.676Z,62.7
2018-07-14T05:03:38.474Z,62.7
2018-07-14T05:04:28.318Z,62.7
2018-07-14T05:05:18.040Z,62.6
2018-07-14T05:06:08.198Z,62.6
2018-07-14T05:06:58.737Z,62.6
2018-07-14T05:07:48.835Z,62.6
2018-07-14T05:08:38.613Z,62.6
2018-07-14T05:09:28.392Z,62.6
2018-07-14T05:10:18.759Z,62.6
2018-07-14T05:11:09.118Z,62.6
2018-07-14T05:11:58.871Z,62.6
2018-07-14T05:12:48.382Z,62.6
2018-07-14T05:13:38.762Z,62.6
2018-07-14T05:14:28.503Z,62.6
2018-07-14T05:15:19.113Z,62.6
2018-07-14T05:16:09.188Z,62.6
2018-07-14T05:16:58.975Z,62.6
2018-07-14T05:17:48.759Z,62.6
2018-07-14T05:18:39.450Z,62.6
2018-07-14T05:19:29.304Z,62.5
2018-07-14T05:20:19.540Z,62.5
2018-07-14T05:21:09.833Z,62.5
2018-07-14T05:21:59.136Z,62.5
2018-07-14T05:22:49.417Z,62.5
2018-07-14T05:23:39.201Z,62.5
2018-07-14T05:24:29.026Z,62.5
2018-07-14T05:25:20.140Z,62.5
2018-07-14T05:26:10.219Z,62.5
2018-07-14T05:27:00.258Z,62.5
2018-07-14T05:27:50.385Z,62.4
2018-07-14T05:28:40.746Z,62.4
2018-07-14T05:29:29.897Z,62.4
2018-07-14T05:30:20.541Z,62.4
2018-07-14T05:31:10.323Z,62.4
2018-07-14T05:31:59.845Z,62.4
2018-07-14T05:32:50.191Z,62.4
2018-07-14T05:33:40.523Z,62.4
2018-07-14T05:34:30.854Z,62.4
2018-07-14T05:35:20.935Z,62.4
2018-07-14T05:36:10.432Z,62.4
2018-07-14T05:37:00.749Z,62.4
2018-07-14T05:37:49.989Z,62.4
2018-07-14T05:38:40.925Z,62.4
2018-07-14T05:39:31.219Z,62.4
2018-07-14T05:40:21.001Z,62.3
2018-07-14T05:41:11.069Z,62.3
2018-07-14T05:42:00.921Z,62.3
2018-07-14T05:42:51.233Z,62.3
2018-07-14T05:43:41.588Z,62.3
2018-07-14T05:44:31.639Z,62.3
2018-07-14T05:45:21.730Z,62.3
2018-07-14T05:46:11.786Z,62.3
2018-07-14T05:47:00.444Z,62.3
2018-07-14T05:47:51.092Z,62.3
2018-07-14T05:48:41.669Z,62.3
2018-07-14T05:49:32.067Z,62.3
2018-07-14T05:50:22.137Z,62.3
2018-07-14T05:51:11.629Z,62.3
2018-07-14T05:52:02.254Z,62.3
2018-07-14T05:52:52.047Z,62.3
2018-07-14T05:53:42.117Z,62.3
2018-07-14T05:54:31.613Z,62.3
2018-07-14T05:55:22.271Z,62.3
2018-07-14T05:56:12.256Z,62.2
2018-07-14T05:57:02.105Z,62.2
2018-07-14T05:57:52.259Z,62.2
2018-07-14T05:58:42.221Z,62.2
2018-07-14T05:59:32.539Z,62.2
2018-07-14T06:00:22.574Z,62.2
2018-07-14T06:01:12.950Z,62.2
2018-07-14T06:02:02.992Z,62.2
2018-07-14T06:02:52.016Z,62.1
2018-07-14T06:03:42.866Z,62.2
2018-07-14T06:04:32.928Z,62.1
2018-07-14T06:05:22.828Z,62.1
2018-07-14T06:06:13.300Z,62.1
2018-07-14T06:07:03.423Z,62.1
2018-07-14T06:07:54.483Z,62.1
2018-07-14T06:08:43.230Z,62.1
2018-07-14T06:09:33.051Z,62.1
2018-07-14T06:10:23.184Z,62.1
2018-07-14T06:11:13.749Z,62.1
2018-07-14T06:12:03.480Z,62.1
2018-07-14T06:12:53.832Z,62.1
2018-07-14T06:13:43.642Z,62.1
2018-07-14T06:14:34.032Z,62.1
2018-07-14T06:15:23.728Z,62.1
2018-07-14T06:16:14.082Z,62.1
2018-07-14T06:17:04.144Z,62
2018-07-14T06:17:54.174Z,62
2018-07-14T06:18:44.285Z,62
2018-07-14T06:19:34.503Z,62
2018-07-14T06:20:23.869Z,62
2018-07-14T06:21:14.224Z,62
2018-07-14T06:22:04.292Z,62
2018-07-14T06:22:54.623Z,61.9
2018-07-14T06:23:44.436Z,62
2018-07-14T06:24:33.914Z,61.9
2018-07-14T06:25:24.885Z,61.9
2018-07-14T06:26:14.860Z,61.9
2018-07-14T06:27:04.697Z,61.9
2018-07-14T06:27:54.725Z,61.9
2018-07-14T06:28:45.059Z,61.9
2018-07-14T06:29:34.853Z,61.9
2018-07-14T06:30:24.909Z,61.9
2018-07-14T06:31:15.239Z,61.9
2018-07-14T06:32:05.253Z,61.9
2018-07-14T06:32:55.114Z,61.9
2018-07-14T06:33:45.449Z,61.9
2018-07-14T06:34:34.460Z,61.9
2018-07-14T06:35:25.007Z,61.9
2018-07-14T06:36:15.359Z,61.9
2018-07-14T06:37:05.458Z,61.9
2018-07-14T06:37:55.483Z,61.9
2018-07-14T06:38:46.445Z,61.8
2018-07-14T06:39:35.862Z,61.8
2018-07-14T06:40:25.934Z,61.8
2018-07-14T06:41:16.005Z,61.8
2018-07-14T06:42:06.120Z,61.8
2018-07-14T06:42:56.145Z,61.8
2018-07-14T06:43:45.912Z,61.8
2018-07-14T06:44:36.430Z,61.8
2018-07-14T06:45:26.314Z,61.8
2018-07-14T06:46:15.898Z,61.8
2018-07-14T06:47:05.669Z,61.8
2018-07-14T06:47:55.959Z,61.8
2018-07-14T06:48:46.611Z,61.8
2018-07-14T06:49:36.405Z,61.8
2018-07-14T06:50:26.173Z,61.8
2018-07-14T06:51:16.822Z,61.8
2018-07-14T06:52:06.299Z,61.8
2018-07-14T06:52:56.640Z,61.8
2018-07-14T06:53:46.408Z,61.7
2018-07-14T06:54:36.820Z,61.7
2018-07-14T06:55:26.295Z,61.7
2018-07-14T06:56:15.908Z,61.7
2018-07-14T06:57:06.486Z,61.7
2018-07-14T06:57:56.808Z,61.7
2018-07-14T06:58:47.102Z,61.7
2018-07-14T06:59:37.177Z,61.7
2018-07-14T07:00:27.514Z,61.7
2018-07-14T07:01:16.727Z,61.6
2018-07-14T07:02:07.654Z,61.6
2018-07-14T07:02:57.011Z,61.6
2018-07-14T07:03:47.519Z,61.6
2018-07-14T07:04:37.566Z,61.6
2018-07-14T07:05:27.063Z,61.6
2018-07-14T07:06:17.975Z,61.6
2018-07-14T07:07:07.494Z,61.6
2018-07-14T07:07:58.101Z,61.6
2018-07-14T07:08:48.239Z,61.6
2018-07-14T07:09:37.409Z,61.6
2018-07-14T07:10:28.137Z,61.6
2018-07-14T07:11:18.396Z,61.6
2018-07-14T07:12:07.815Z,61.6
2018-07-14T07:12:58.223Z,61.6
2018-07-14T07:13:49.066Z,61.5
2018-07-14T07:14:38.574Z,61.6
2018-07-14T07:15:28.408Z,61.5
2018-07-14T07:16:18.464Z,61.5
2018-07-14T07:17:08.488Z,61.5
2018-07-14T07:17:58.843Z,61.5
2018-07-14T07:18:48.879Z,61.5
2018-07-14T07:19:38.706Z,61.5
2018-07-14T07:20:28.809Z,61.5
2018-07-14T07:21:19.231Z,61.4
2018-07-14T07:22:08.591Z,61.4
2018-07-14T07:22:58.965Z,61.4
2018-07-14T07:23:48.447Z,61.4
2018-07-14T07:24:39.104Z,61.4
2018-07-14T07:25:29.429Z,61.4
2018-07-14T07:26:19.508Z,61.4
2018-07-14T07:27:09.516Z,61.4
2018-07-14T07:27:58.587Z,61.4
2018-07-14T07:28:49.699Z,61.4
2018-07-14T07:29:38.980Z,61.4
2018-07-14T07:30:29.332Z,61.4
2018-07-14T07:31:19.346Z,61.4
2018-07-14T07:32:09.970Z,61.4
2018-07-14T07:33:00.044Z,61.4
2018-07-14T07:33:48.479Z,61.3
2018-07-14T07:34:41.071Z,61.4
2018-07-14T07:35:29.728Z,61.3
2018-07-14T07:36:20.110Z,61.3
2018-07-14T07:37:09.637Z,61.3
2018-07-14T07:38:00.437Z,61.3
2018-07-14T07:38:50.497Z,61.3
2018-07-14T07:39:39.984Z,61.3
2018-07-14T07:40:29.840Z,61.3
2018-07-14T07:41:19.503Z,61.3
2018-07-14T07:42:10.471Z,61.3
2018-07-14T07:43:00.810Z,61.3
2018-07-14T07:43:50.887Z,61.3
2018-07-14T07:44:40.942Z,61.3
2018-07-14T07:45:30.180Z,61.3
2018-07-14T07:46:20.801Z,61.3
2018-07-14T07:47:10.575Z,61.3
2018-07-14T07:48:00.908Z,61.3
2018-07-14T07:48:51.231Z,61.3
2018-07-14T07:49:41.305Z,61.3
2018-07-14T07:50:31.090Z,61.2
2018-07-14T07:51:21.181Z,61.2
2018-07-14T07:52:10.952Z,61.2
2018-07-14T07:53:00.996Z,61.2
2018-07-14T07:53:50.789Z,61.2
2018-07-14T07:54:41.726Z,61.2
2018-07-14T07:55:31.223Z,61.2
2018-07-14T07:56:21.784Z,61.1
2018-07-14T07:57:11.862Z,61.1
2018-07-14T07:58:00.537Z,61.1
2018-07-14T07:58:51.502Z,61.1
2018-07-14T07:59:41.780Z,61.1
2018-07-14T08:00:32.175Z,61.1
2018-07-14T08:01:21.353Z,61.1
2018-07-14T08:02:11.764Z,61.1
2018-07-14T08:03:02.031Z,61.1
2018-07-14T08:03:52.120Z,61.1
2018-07-14T08:04:42.488Z,61.1
2018-07-14T08:05:32.005Z,61.1
2018-07-14T08:06:22.032Z,61.1
2018-07-14T08:07:12.389Z,61.1
2018-07-14T08:08:02.228Z,61.1
2018-07-14T08:08:52.232Z,61.1
2018-07-14T08:09:42.584Z,61.1
2018-07-14T08:10:32.433Z,61.1
2018-07-14T08:11:22.432Z,61.1
2018-07-14T08:12:12.842Z,61
2018-07-14T08:13:02.871Z,61
2018-07-14T08:13:52.363Z,61
2018-07-14T08:14:43.257Z,61
2018-07-14T08:15:32.993Z,61
2018-07-14T08:16:23.377Z,61
2018-07-14T08:17:13.444Z,60.9
2018-07-14T08:18:02.659Z,60.9
2018-07-14T08:18:53.275Z,60.9
2018-07-14T08:19:43.353Z,60.9
2018-07-14T08:20:33.536Z,60.9
2018-07-14T08:21:23.469Z,60.9
2018-07-14T08:22:13.821Z,60.9
2018-07-14T08:23:04.405Z,60.9
2018-07-14T08:23:53.500Z,60.9
2018-07-14T08:24:43.728Z,60.9
2018-07-14T08:25:34.118Z,60.9
2018-07-14T08:26:24.149Z,60.9
2018-07-14T08:27:13.643Z,60.9
2018-07-14T08:28:04.260Z,60.9
2018-07-14T08:28:53.757Z,60.9
2018-07-14T08:29:44.144Z,60.9
2018-07-14T08:30:34.518Z,60.9
2018-07-14T08:31:24.552Z,60.9
2018-07-14T08:32:14.121Z,60.9
2018-07-14T08:33:03.556Z,60.9
2018-07-14T08:33:54.462Z,60.8
2018-07-14T08:34:44.531Z,60.8
2018-07-14T08:35:34.619Z,60.8
2018-07-14T08:36:24.652Z,60.8
2018-07-14T08:37:14.694Z,60.8
2018-07-14T08:38:04.098Z,60.8
2018-07-14T08:38:55.111Z,60.8
2018-07-14T08:39:45.218Z,60.8
2018-07-14T08:40:35.244Z,60.8
2018-07-14T08:41:24.847Z,60.8
2018-07-14T08:42:15.385Z,60.8
2018-07-14T08:43:05.179Z,60.8
2018-07-14T08:43:56.248Z,60.8
2018-07-14T08:44:45.275Z,60.8
2018-07-14T08:45:35.608Z,60.8
2018-07-14T08:46:25.699Z,60.7
2018-07-14T08:47:15.490Z,60.8
2018-07-14T08:48:05.561Z,60.7
2018-07-14T08:48:55.600Z,60.7
2018-07-14T08:49:45.196Z,60.7
2018-07-14T08:50:36.972Z,60.7
2018-07-14T08:51:25.654Z,60.7
2018-07-14T08:52:15.390Z,60.7
2018-07-14T08:53:05.708Z,60.7
2018-07-14T08:53:55.240Z,60.7
2018-07-14T08:54:44.799Z,60.7
2018-07-14T08:55:35.937Z,60.6
2018-07-14T08:56:25.711Z,60.6
2018-07-14T08:57:15.507Z,60.6
2018-07-14T08:58:05.164Z,60.6
2018-07-14T08:58:55.908Z,60.6
2018-07-14T08:59:46.841Z,60.6
2018-07-14T09:00:36.556Z,60.6
2018-07-14T09:01:26.561Z,60.6
2018-07-14T09:02:16.888Z,60.6
2018-07-14T09:03:06.687Z,60.6
2018-07-14T09:03:56.756Z,60.6
2018-07-14T09:04:47.101Z,60.6
2018-07-14T09:05:36.906Z,60.6
2018-07-14T09:06:26.673Z,60.6
2018-07-14T09:07:16.998Z,60.6
2018-07-14T09:08:07.335Z,60.6
2018-07-14T09:08:57.140Z,60.6
2018-07-14T09:09:47.466Z,60.6
2018-07-14T09:10:37.528Z,60.6
2018-07-14T09:11:27.047Z,60.5
2018-07-14T09:12:17.176Z,60.5
2018-07-14T09:13:07.748Z,60.6
2018-07-14T09:13:57.772Z,60.5
2018-07-14T09:14:47.614Z,60.5
2018-07-14T09:15:37.903Z,60.5
2018-07-14T09:16:28.236Z,60.4
2018-07-14T09:17:18.065Z,60.4
2018-07-14T09:18:08.110Z,60.4
2018-07-14T09:18:58.195Z,60.4
2018-07-14T09:19:47.456Z,60.4
2018-07-14T09:20:37.840Z,60.4
2018-07-14T09:21:27.560Z,60.4
2018-07-14T09:22:17.650Z,60.4
2018-07-14T09:23:07.691Z,60.4
2018-07-14T09:23:58.096Z,60.4
2018-07-14T09:24:47.842Z,60.4
2018-07-14T09:25:38.440Z,60.4
2018-07-14T09:26:28.234Z,60.4
2018-07-14T09:27:18.014Z,60.3
2018-07-14T09:28:08.162Z,60.4
2018-07-14T09:28:58.170Z,60.3
2018-07-14T09:29:48.575Z,60.3
2018-07-14T09:30:38.547Z,60.3
2018-07-14T09:31:28.165Z,60.3
2018-07-14T09:32:19.032Z,60.3
2018-07-14T09:33:09.003Z,60.3
2018-07-14T09:33:58.848Z,60.3
2018-07-14T09:34:49.546Z,60.3
2018-07-14T09:35:39.506Z,60.3
2018-07-14T09:36:29.522Z,60.3
2018-07-14T09:37:19.335Z,60.3
2018-07-14T09:38:10.044Z,60.3
2018-07-14T09:38:59.179Z,60.3
2018-07-14T09:39:49.521Z,60.3
2018-07-14T09:40:38.742Z,60.3
2018-07-14T09:41:29.340Z,60.3
2018-07-14T09:42:19.699Z,60.3
2018-07-14T09:43:10.068Z,60.3
2018-07-14T09:44:00.618Z,60.2
2018-07-14T09:44:49.939Z,60.2
2018-07-14T09:45:39.714Z,60.2
2018-07-14T09:46:29.817Z,60.2
2018-07-14T09:47:19.559Z,60.2
2018-07-14T09:48:10.490Z,60.2
2018-07-14T09:49:00.514Z,60.2
2018-07-14T09:49:49.905Z,60.2
2018-07-14T09:50:39.889Z,60.2
2018-07-14T09:51:29.959Z,60.1
2018-07-14T09:52:20.062Z,60.1
2018-07-14T09:53:09.351Z,60.1
2018-07-14T09:54:00.403Z,60.1
2018-07-14T09:54:50.205Z,60.1
2018-07-14T09:55:39.982Z,60.1
2018-07-14T09:56:30.375Z,60.1
2018-07-14T09:57:19.911Z,60.1
2018-07-14T09:58:10.168Z,60.1
2018-07-14T09:59:01.073Z,60.1
2018-07-14T09:59:50.809Z,60.1
2018-07-14T10:00:40.845Z,60.1
2018-07-14T10:01:31.448Z,60.1
2018-07-14T10:02:21.265Z,60.1
2018-07-14T10:03:11.589Z,60.1
2018-07-14T10:04:01.085Z,60.1
2018-07-14T10:04:51.462Z,60.1
2018-07-14T10:05:41.508Z,60.1
2018-07-14T10:06:30.875Z,60
2018-07-14T10:07:21.101Z,60
2018-07-14T10:08:11.737Z,60
2018-07-14T10:09:02.104Z,60
2018-07-14T10:09:51.952Z,60
2018-07-14T10:10:42.192Z,60
2018-07-14T10:11:31.793Z,60
2018-07-14T10:12:22.354Z,60
2018-07-14T10:13:12.301Z,59.9
2018-07-14T10:14:01.714Z,59.9
2018-07-14T10:14:52.361Z,59.9
2018-07-14T10:15:41.280Z,59.9
2018-07-14T10:16:31.853Z,59.9
2018-07-14T10:17:23.568Z,59.9
2018-07-14T10:18:12.482Z,59.9
2018-07-14T10:19:02.831Z,59.9
2018-07-14T10:19:52.439Z,59.9
2018-07-14T10:20:43.114Z,59.9
2018-07-14T10:21:32.534Z,59.9
2018-07-14T10:22:23.970Z,59.9
2018-07-14T10:23:13.261Z,59.9
2018-07-14T10:24:02.477Z,59.9
2018-07-14T10:24:53.056Z,59.9
2018-07-14T10:25:45.516Z,59.9
2018-07-14T10:26:32.971Z,59.8
2018-07-14T10:27:22.929Z,59.9
2018-07-14T10:28:13.588Z,59.8
2018-07-14T10:29:03.665Z,59.8
2018-07-14T10:29:53.168Z,59.8
2018-07-14T10:30:43.206Z,59.8
2018-07-14T10:31:33.845Z,59.8
2018-07-14T10:32:23.109Z,59.8
2018-07-14T10:33:13.940Z,59.8
2018-07-14T10:34:04.299Z,59.8
2018-07-14T10:34:53.906Z,59.8
2018-07-14T10:35:44.198Z,59.8
2018-07-14T10:36:33.932Z,59.8
2018-07-14T10:37:24.305Z,59.8
2018-07-14T10:38:14.094Z,59.8
2018-07-14T10:39:04.171Z,59.8
2018-07-14T10:39:53.740Z,59.8
2018-07-14T10:40:44.003Z,59.8
2018-07-14T10:41:34.132Z,59.8
2018-07-14T10:42:24.267Z,59.7
2018-07-14T10:43:13.918Z,59.7
2018-07-14T10:44:04.553Z,59.7
2018-07-14T10:44:54.047Z,59.7
2018-07-14T10:45:44.680Z,59.7
2018-07-14T10:46:34.768Z,59.7
2018-07-14T10:47:25.143Z,59.7
2018-07-14T10:48:14.638Z,59.7
2018-07-14T10:49:04.678Z,59.7
2018-07-14T10:49:55.245Z,59.7
2018-07-14T10:50:43.915Z,59.6
2018-07-14T10:51:34.613Z,59.6
2018-07-14T10:52:24.882Z,59.6
2018-07-14T10:53:15.244Z,59.6
2018-07-14T10:54:05.320Z,59.6
2018-07-14T10:54:55.716Z,59.6
2018-07-14T10:55:45.739Z,59.6
2018-07-14T10:56:35.003Z,59.6
2018-07-14T10:57:25.291Z,59.6
2018-07-14T10:58:15.814Z,59.6
2018-07-14T10:59:05.686Z,59.6
2018-07-14T10:59:55.736Z,59.6
2018-07-14T11:00:46.045Z,59.6
2018-07-14T11:01:36.111Z,59.6
2018-07-14T11:02:26.181Z,59.6
2018-07-14T11:03:16.264Z,59.6
2018-07-14T11:04:06.024Z,59.5
2018-07-14T11:04:56.134Z,59.5
2018-07-14T11:05:46.467Z,59.5
2018-07-14T11:06:36.143Z,59.5
2018-07-14T11:07:26.576Z,59.5
2018-07-14T11:08:16.628Z,59.5
2018-07-14T11:09:05.866Z,59.5